Time;durP1;ratioP1;P1;durP2;ratioP2;P2;SDS_P1;SDS_P2;PMS_P1;PMS_P2;Temp;Humidity;BMP_temperature;BMP_pressure;BME280_temperature;BME280_humidity;BME280_pressure;Samples;Min_cycle;Max_cycle;Signal;HPM_P1;HPM_P2
2022/01/15 00:00:47;;;;;;;91.20;49.20;;;21.20;96.60;;;;;;4196638;28;20808;-67
2022/01/15 00:02:52;;;;;;;77.20;46.70;;;21.20;96.70;;;;;;4202938;28;20052;-67
2022/01/15 00:04:56;;;;;;;96.10;48.72;;;21.20;96.80;;;;;;4201059;28;20403;-67
2022/01/15 00:07:00;;;;;;;107.05;50.15;;;21.20;96.80;;;;;;4202059;28;20037;-67
2022/01/15 00:09:04;;;;;;;105.22;48.13;;;21.20;96.80;;;;;;4201681;28;20632;-68
2022/01/15 00:11:09;;;;;;;94.60;48.75;;;21.30;96.80;;;;;;4201708;28;20485;-69
2022/01/15 00:13:24;;;;;;;85.82;47.90;;;21.30;96.90;;;;;;4197596;28;20040;-67
2022/01/15 00:15:33;;;;;;;90.82;48.67;;;21.30;96.80;;;;;;4198783;28;20052;-68
2022/01/15 00:17:51;;;;;;;91.68;49.65;;;21.30;97.00;;;;;;4191887;28;20040;-68
2022/01/15 00:19:55;;;;;;;88.28;52.28;;;21.40;96.90;;;;;;4193626;28;20040;-67
2022/01/15 00:21:59;;;;;;;95.75;53.58;;;21.40;97.10;;;;;;4193462;28;20070;-67
2022/01/15 00:24:04;;;;;;;94.55;54.97;;;21.40;97.00;;;;;;4193656;28;20400;-67
2022/01/15 00:26:10;;;;;;;93.90;57.30;;;21.40;97.00;;;;;;4193587;28;20514;-66
2022/01/15 00:28:15;;;;;;;96.57;56.55;;;21.40;97.40;;;;;;4203155;28;20422;-68
2022/01/15 00:30:19;;;;;;;91.85;60.15;;;21.50;97.30;;;;;;4209661;28;20032;-66
2022/01/15 00:32:24;;;;;;;110.65;62.08;;;21.50;97.20;;;;;;4211163;28;20502;-68
2022/01/15 00:34:29;;;;;;;113.43;66.97;;;21.50;97.30;;;;;;4207324;28;20052;-66
2022/01/15 00:36:34;;;;;;;121.63;70.30;;;21.50;97.20;;;;;;4197417;28;20071;-68
2022/01/15 00:38:38;;;;;;;138.18;80.30;;;21.60;97.10;;;;;;4200459;28;20506;-65
2022/01/15 00:40:42;;;;;;;132.82;82.43;;;21.60;97.20;;;;;;4199497;28;20049;-66
2022/01/15 00:42:47;;;;;;;117.97;75.13;;;21.70;97.20;;;;;;4202112;28;20494;-65
2022/01/15 00:44:51;;;;;;;134.68;77.50;;;21.60;97.20;;;;;;4199461;28;20490;-66
2022/01/15 00:46:56;;;;;;;133.20;74.97;;;21.70;97.30;;;;;;4201014;28;20041;-67
2022/01/15 00:49:00;;;;;;;144.10;84.22;;;21.80;97.50;;;;;;4196508;28;20041;-66
2022/01/15 00:51:04;;;;;;;131.93;80.03;;;21.70;97.40;;;;;;4197177;28;20036;-66
2022/01/15 00:53:11;;;;;;;121.85;80.15;;;21.80;97.40;;;;;;4196441;28;20076;-67
2022/01/15 00:55:16;;;;;;;127.80;80.63;;;21.80;97.40;;;;;;4201547;28;20037;-65
2022/01/15 00:57:20;;;;;;;139.57;71.65;;;21.80;97.40;;;;;;4199862;28;20469;-66
2022/01/15 00:59:25;;;;;;;114.63;69.35;;;21.90;97.30;;;;;;4201712;28;20071;-66
2022/01/15 01:01:29;;;;;;;118.95;74.55;;;22.00;97.30;;;;;;4197040;28;20426;-66
2022/01/15 01:03:34;;;;;;;140.30;81.15;;;22.00;97.30;;;;;;4198567;28;20040;-67
2022/01/15 01:05:39;;;;;;;129.23;78.13;;;22.00;97.30;;;;;;4201337;28;20086;-67
2022/01/15 01:07:45;;;;;;;122.88;75.47;;;22.10;97.30;;;;;;4197523;28;20064;-65
2022/01/15 01:12:09;;;;;;;97.57;61.03;;;22.20;97.00;;;;;;4195815;28;20036;-66
2022/01/15 01:23:17;;;;;;;77.28;44.95;;;22.30;96.50;;;;;;4184676;28;20078;-67
2022/01/15 01:25:23;;;;;;;101.88;44.80;;;22.40;96.30;;;;;;4187806;28;20461;-69
2022/01/15 01:27:41;;;;;;;70.28;42.95;;;22.40;96.20;;;;;;4191895;28;20053;-66
2022/01/15 01:30:09;;;;;;;65.40;41.88;;;22.40;96.20;;;;;;4190953;28;21252;-67
2022/01/15 01:32:34;;;;;;;62.95;40.78;;;22.40;96.10;;;;;;4195113;28;20570;-67
2022/01/15 01:34:35;;;;;;;58.88;39.33;;;22.50;96.10;;;;;;4175799;28;20053;-67
2022/01/15 01:36:59;;;;;;;61.53;42.45;;;22.50;96.10;;;;;;4175735;28;20134;-68
2022/01/15 01:39:10;;;;;;;58.72;39.80;;;22.60;96.30;;;;;;4176012;28;20045;-67
2022/01/15 01:41:18;;;;;;;63.15;40.42;;;22.60;96.20;;;;;;4190067;28;20086;-66
2022/01/15 01:45:28;;;;;;;61.90;43.28;;;22.70;96.10;;;;;;4189041;28;20044;-67
2022/01/15 01:47:40;;;;;;;62.95;44.17;;;22.70;96.10;;;;;;4178945;28;20045;-66
2022/01/15 01:49:44;;;;;;;63.45;43.22;;;22.80;96.60;;;;;;4176661;28;20057;-66
2022/01/15 01:51:49;;;;;;;64.10;44.28;;;22.80;96.30;;;;;;4208254;28;20043;-66
2022/01/15 01:53:54;;;;;;;68.18;43.95;;;22.70;96.40;;;;;;4202090;28;20123;-66
2022/01/15 01:55:58;;;;;;;64.10;42.03;;;22.80;96.20;;;;;;4191610;28;20709;-66
2022/01/15 01:58:03;;;;;;;66.78;42.92;;;22.80;96.20;;;;;;4193848;28;20127;-66
2022/01/15 02:00:10;;;;;;;57.10;40.17;;;22.90;96.10;;;;;;4195857;28;20036;-66
2022/01/15 02:02:21;;;;;;;60.88;40.88;;;23.00;96.00;;;;;;4196246;28;20405;-66
2022/01/15 02:04:26;;;;;;;54.90;40.75;;;23.00;95.90;;;;;;4193772;28;20045;-67
2022/01/15 02:06:30;;;;;;;59.17;40.28;;;23.00;95.90;;;;;;4199489;28;20093;-66
2022/01/15 02:08:36;;;;;;;63.20;41.35;;;23.00;95.80;;;;;;4192562;28;20052;-67
2022/01/15 02:10:41;;;;;;;58.60;39.58;;;23.00;95.80;;;;;;4176794;28;20470;-66
2022/01/15 02:12:47;;;;;;;58.50;37.90;;;23.10;95.70;;;;;;4174692;28;20602;-66
2022/01/15 02:14:51;;;;;;;53.65;35.47;;;23.20;95.70;;;;;;4174612;28;20061;-66
2022/01/15 02:16:56;;;;;;;46.35;35.30;;;23.20;95.70;;;;;;4174517;28;20057;-67
2022/01/15 02:19:01;;;;;;;50.10;35.42;;;23.20;95.60;;;;;;4174627;28;20047;-67
2022/01/15 02:25:54;;;;;;;45.40;32.90;;;23.30;95.60;;;;;;4190670;28;20056;-66
2022/01/15 02:27:58;;;;;;;42.38;31.38;;;23.40;95.60;;;;;;4190878;28;20499;-65
2022/01/15 02:30:04;;;;;;;49.63;32.25;;;23.40;95.50;;;;;;4191105;28;20056;-66
2022/01/15 02:32:08;;;;;;;46.25;31.95;;;23.50;95.50;;;;;;4191178;28;20114;-65
2022/01/15 02:34:12;;;;;;;51.03;31.50;;;23.50;95.40;;;;;;4188912;28;20119;-66
2022/01/15 02:36:19;;;;;;;48.28;31.73;;;23.50;95.10;;;;;;4191141;28;20067;-66
2022/01/15 02:38:23;;;;;;;48.72;31.02;;;23.60;95.10;;;;;;4194977;28;20060;-67
2022/01/15 02:40:28;;;;;;;60.83;31.20;;;23.60;94.90;;;;;;4195046;28;20071;-65
2022/01/15 02:42:33;;;;;;;48.05;30.30;;;23.70;94.70;;;;;;4197602;28;20059;-66
2022/01/15 02:44:39;;;;;;;46.80;28.98;;;23.60;94.70;;;;;;4203420;28;20076;-66
2022/01/15 02:49:03;;;;;;;43.38;28.10;;;23.60;94.50;;;;;;4195416;28;20064;-66
2022/01/15 02:51:07;;;;;;;38.88;26.38;;;23.70;94.80;;;;;;4182504;28;20051;-65
2022/01/15 02:53:12;;;;;;;45.08;26.98;;;23.80;94.50;;;;;;4186041;28;20040;-66
2022/01/15 02:55:17;;;;;;;35.28;24.45;;;23.80;94.40;;;;;;4195698;28;20116;-64
2022/01/15 02:57:21;;;;;;;40.75;24.70;;;23.90;94.50;;;;;;4195679;28;20064;-67
2022/01/15 02:59:26;;;;;;;43.78;23.70;;;24.00;94.20;;;;;;4195757;28;20073;-67
2022/01/15 03:01:31;;;;;;;42.70;23.42;;;24.00;94.20;;;;;;4195531;28;20048;-68
2022/01/15 03:03:36;;;;;;;42.55;23.05;;;24.10;94.20;;;;;;4192247;28;20064;-67
2022/01/15 03:05:42;;;;;;;41.33;25.17;;;24.10;94.00;;;;;;4194549;28;20434;-65
2022/01/15 03:07:48;;;;;;;40.53;23.77;;;24.10;93.90;;;;;;4192340;28;20043;-65
2022/01/15 03:09:55;;;;;;;39.63;23.67;;;24.20;93.80;;;;;;4193205;28;20044;-65
2022/01/15 03:12:02;;;;;;;37.53;22.90;;;24.20;93.70;;;;;;4194604;28;20048;-66
2022/01/15 03:14:07;;;;;;;30.73;20.95;;;24.30;93.80;;;;;;4193885;28;20187;-66
2022/01/15 03:16:13;;;;;;;34.38;20.15;;;24.30;93.80;;;;;;4195855;28;20037;-66
2022/01/15 03:18:17;;;;;;;30.77;18.88;;;24.40;93.80;;;;;;4201164;28;20060;-66
2022/01/15 03:20:22;;;;;;;28.23;18.52;;;24.50;93.40;;;;;;4195709;28;20064;-66
2022/01/15 03:22:26;;;;;;;31.05;18.52;;;24.50;93.20;;;;;;4195284;28;20422;-66
2022/01/15 03:24:30;;;;;;;29.58;19.00;;;24.60;93.20;;;;;;4194189;28;20122;-66
2022/01/15 03:26:35;;;;;;;28.02;18.20;;;24.60;93.20;;;;;;4195399;28;20052;-64
2022/01/15 03:28:41;;;;;;;29.38;18.08;;;24.70;93.10;;;;;;4197357;28;20053;-64
2022/01/15 03:30:45;;;;;;;26.88;17.42;;;24.70;92.80;;;;;;4196956;28;20044;-62
2022/01/15 03:32:52;;;;;;;24.17;16.88;;;24.80;92.70;;;;;;4198132;28;20052;-63
2022/01/15 03:34:56;;;;;;;28.20;16.98;;;24.80;92.70;;;;;;4194547;28;20098;-66
2022/01/15 03:37:01;;;;;;;26.90;17.65;;;24.80;92.60;;;;;;4193567;28;20044;-66
2022/01/15 03:39:05;;;;;;;36.88;18.77;;;24.80;92.30;;;;;;4192305;28;20044;-65
2022/01/15 03:41:10;;;;;;;30.65;18.73;;;25.00;92.10;;;;;;4194196;28;20049;-67
2022/01/15 03:43:14;;;;;;;27.05;19.17;;;25.00;91.80;;;;;;4194069;28;20040;-67
2022/01/15 03:45:19;;;;;;;28.10;18.73;;;25.00;91.80;;;;;;4193047;28;20045;-66
2022/01/15 03:47:23;;;;;;;29.65;18.40;;;25.10;91.80;;;;;;4193255;28;20043;-66
2022/01/15 03:49:27;;;;;;;30.63;19.33;;;25.20;91.60;;;;;;4190515;28;20048;-66
2022/01/15 03:51:31;;;;;;;27.73;18.75;;;25.20;91.70;;;;;;4190870;28;20461;-65
2022/01/15 03:53:35;;;;;;;26.20;18.40;;;25.20;91.90;;;;;;4191491;28;20244;-66
2022/01/15 03:55:40;;;;;;;31.23;18.00;;;25.20;91.80;;;;;;4192619;28;20040;-64
2022/01/15 03:57:44;;;;;;;26.17;18.35;;;25.30;91.70;;;;;;4192673;28;20225;-66
2022/01/15 03:59:49;;;;;;;31.08;19.35;;;25.30;91.70;;;;;;4190931;28;20040;-65
2022/01/15 04:01:53;;;;;;;28.73;18.42;;;25.40;91.60;;;;;;4193619;28;20071;-65
2022/01/15 04:03:58;;;;;;;27.88;17.90;;;25.40;91.60;;;;;;4193668;28;20094;-66
2022/01/15 04:06:03;;;;;;;24.30;17.15;;;25.50;91.50;;;;;;4193808;28;20048;-66
2022/01/15 04:08:10;;;;;;;34.22;17.33;;;25.60;91.20;;;;;;4193802;28;20052;-66
2022/01/15 04:10:15;;;;;;;32.70;17.63;;;25.70;90.80;;;;;;4189852;28;20101;-65
2022/01/15 04:12:19;;;;;;;27.83;17.50;;;25.70;90.90;;;;;;4191827;28;20040;-66
2022/01/15 04:14:24;;;;;;;25.85;17.15;;;25.80;90.70;;;;;;4188679;28;20410;-66
2022/01/15 04:16:31;;;;;;;25.48;16.40;;;25.90;90.30;;;;;;4192221;28;20113;-66
2022/01/15 04:18:40;;;;;;;25.15;16.48;;;26.00;90.20;;;;;;4191900;28;20048;-66
2022/01/15 04:20:44;;;;;;;22.90;15.98;;;26.00;89.90;;;;;;4192190;28;20561;-66
2022/01/15 04:22:51;;;;;;;31.85;15.23;;;26.00;89.30;;;;;;4191739;28;20392;-67
2022/01/15 04:24:55;;;;;;;22.35;15.63;;;26.00;89.40;;;;;;4192209;28;20170;-67
2022/01/15 04:27:00;;;;;;;24.50;14.73;;;26.10;89.40;;;;;;4193493;28;20106;-67
2022/01/15 04:29:06;;;;;;;21.27;14.77;;;26.10;88.10;;;;;;4194351;28;20055;-68
2022/01/15 04:31:11;;;;;;;24.15;14.20;;;26.20;88.00;;;;;;4192234;28;20068;-67
2022/01/15 04:33:15;;;;;;;19.92;13.57;;;26.20;87.80;;;;;;4193614;28;20037;-67
2022/01/15 04:35:19;;;;;;;19.23;13.93;;;26.30;87.30;;;;;;4194556;28;20084;-67
2022/01/15 04:37:32;;;;;;;21.65;13.98;;;26.40;87.30;;;;;;4193822;28;20056;-67
2022/01/15 04:39:36;;;;;;;22.13;13.85;;;26.40;86.90;;;;;;4193523;28;20135;-67
2022/01/15 04:41:41;;;;;;;24.23;14.00;;;26.40;87.00;;;;;;4193700;28;20410;-67
2022/01/15 04:43:45;;;;;;;25.20;14.63;;;26.40;87.30;;;;;;4194429;28;20568;-67
2022/01/15 04:45:49;;;;;;;22.67;14.32;;;26.50;86.80;;;;;;4197015;28;20040;-67
2022/01/15 04:47:56;;;;;;;22.13;13.52;;;26.60;86.30;;;;;;4196808;28;20430;-67
2022/01/15 04:50:00;;;;;;;19.40;13.35;;;26.60;85.90;;;;;;4196914;28;20449;-67
2022/01/15 04:52:05;;;;;;;21.58;13.13;;;26.60;86.20;;;;;;4197309;28;20045;-67
2022/01/15 04:54:09;;;;;;;21.05;13.13;;;26.70;86.20;;;;;;4183370;28;20411;-66
2022/01/15 04:56:13;;;;;;;25.02;13.13;;;26.70;85.00;;;;;;4194209;28;20106;-67
2022/01/15 04:58:17;;;;;;;31.73;13.60;;;26.80;85.40;;;;;;4193655;28;20162;-67
2022/01/15 05:00:23;;;;;;;25.40;13.90;;;26.80;85.60;;;;;;4197388;28;20402;-69
2022/01/15 05:02:28;;;;;;;19.85;13.52;;;26.90;85.20;;;;;;4204659;28;20102;-68
2022/01/15 05:04:32;;;;;;;22.45;13.77;;;27.00;85.30;;;;;;4196724;28;20048;-68
2022/01/15 05:06:39;;;;;;;25.00;13.52;;;27.00;84.70;;;;;;4197373;28;20055;-68
2022/01/15 05:08:46;;;;;;;19.08;12.70;;;27.00;84.40;;;;;;4197471;28;20591;-68
2022/01/15 05:10:53;;;;;;;24.60;12.75;;;27.00;84.10;;;;;;4196895;28;20047;-68
2022/01/15 05:13:01;;;;;;;24.75;13.13;;;27.10;84.40;;;;;;4187125;28;20052;-68
2022/01/15 05:15:06;;;;;;;24.23;13.02;;;27.20;84.20;;;;;;4194302;28;20178;-66
2022/01/15 05:17:10;;;;;;;23.50;12.48;;;27.30;84.30;;;;;;4200739;28;20105;-67
2022/01/15 05:26:09;;;;;;;22.17;12.18;;;27.40;82.50;;;;;;4189002;28;20029;-67
